sensor_id;sensor_type;location;lat;lon;timestamp;temperature;humidity
42979;DHT22;28616;44.746;19.678;2023-01-09T00:00:45;6.10;99.90
42979;DHT22;28616;44.746;19.678;2023-01-09T00:03:11;6.10;99.90
42979;DHT22;28616;44.746;19.678;2023-01-09T00:05:37;6.10;99.90
42979;DHT22;28616;44.746;19.678;2023-01-09T00:08:03;6.10;99.90
42979;DHT22;28616;44.746;19.678;2023-01-09T00:10:29;6.00;99.90
42979;DHT22;28616;44.746;19.678;2023-01-09T00:12:54;6.00;99.90
42979;DHT22;28616;44.746;19.678;2023-01-09T00:15:20;6.00;99.90
42979;DHT22;28616;44.746;19.678;2023-01-09T00:17:46;6.00;99.90
42979;DHT22;28616;44.746;19.678;2023-01-09T00:20:13;5.90;99.90
42979;DHT22;28616;44.746;19.678;2023-01-09T00:22:39;5.90;99.90
42979;DHT22;28616;44.746;19.678;2023-01-09T00:25:05;6.00;99.90
42979;DHT22;28616;44.746;19.678;2023-01-09T00:27:33;5.90;99.90
42979;DHT22;28616;44.746;19.678;2023-01-09T00:29:59;5.90;99.90
42979;DHT22;28616;44.746;19.678;2023-01-09T00:32:25;5.90;99.90
42979;DHT22;28616;44.746;19.678;2023-01-09T00:34:51;5.90;99.90
42979;DHT22;28616;44.746;19.678;2023-01-09T00:37:17;5.90;99.90
42979;DHT22;28616;44.746;19.678;2023-01-09T00:39:43;5.80;99.90
42979;DHT22;28616;44.746;19.678;2023-01-09T00:42:15;5.80;99.90
42979;DHT22;28616;44.746;19.678;2023-01-09T00:44:45;5.80;99.90
42979;DHT22;28616;44.746;19.678;2023-01-09T00:47:19;5.70;99.90
42979;DHT22;28616;44.746;19.678;2023-01-09T00:49:46;5.70;99.90
42979;DHT22;28616;44.746;19.678;2023-01-09T00:52:13;5.70;99.90
42979;DHT22;28616;44.746;19.678;2023-01-09T00:54:39;5.60;99.90
42979;DHT22;28616;44.746;19.678;2023-01-09T00:57:09;5.60;99.90
42979;DHT22;28616;44.746;19.678;2023-01-09T00:59:35;5.60;99.90
42979;DHT22;28616;44.746;19.678;2023-01-09T01:02:01;5.50;99.90
42979;DHT22;28616;44.746;19.678;2023-01-09T01:04:27;5.50;99.90
42979;DHT22;28616;44.746;19.678;2023-01-09T01:07:11;5.50;99.90
42979;DHT22;28616;44.746;19.678;2023-01-09T01:09:55;5.40;99.90
42979;DHT22;28616;44.746;19.678;2023-01-09T01:12:21;5.40;99.90
42979;DHT22;28616;44.746;19.678;2023-01-09T01:14:46;5.40;99.90
42979;DHT22;28616;44.746;19.678;2023-01-09T01:17:12;5.40;99.90
42979;DHT22;28616;44.746;19.678;2023-01-09T01:19:38;5.40;99.90
42979;DHT22;28616;44.746;19.678;2023-01-09T01:22:04;5.30;99.90
42979;DHT22;28616;44.746;19.678;2023-01-09T01:24:30;5.30;99.90
42979;DHT22;28616;44.746;19.678;2023-01-09T01:26:56;5.30;99.90
42979;DHT22;28616;44.746;19.678;2023-01-09T01:29:22;5.30;99.90
42979;DHT22;28616;44.746;19.678;2023-01-09T01:31:48;5.20;99.90
42979;DHT22;28616;44.746;19.678;2023-01-09T01:34:13;5.30;99.90
42979;DHT22;28616;44.746;19.678;2023-01-09T01:36:39;5.20;99.90
42979;DHT22;28616;44.746;19.678;2023-01-09T01:39:05;5.30;99.90
42979;DHT22;28616;44.746;19.678;2023-01-09T01:41:30;5.30;99.90
42979;DHT22;28616;44.746;19.678;2023-01-09T01:44:03;5.20;99.90
42979;DHT22;28616;44.746;19.678;2023-01-09T01:46:30;5.20;99.90
42979;DHT22;28616;44.746;19.678;2023-01-09T01:49:05;5.20;99.90
42979;DHT22;28616;44.746;19.678;2023-01-09T01:51:34;5.20;99.90
42979;DHT22;28616;44.746;19.678;2023-01-09T01:54:06;5.20;99.90
42979;DHT22;28616;44.746;19.678;2023-01-09T01:56:50;5.20;99.90
42979;DHT22;28616;44.746;19.678;2023-01-09T01:59:19;5.20;99.90
42979;DHT22;28616;44.746;19.678;2023-01-09T02:01:48;5.10;99.90
42979;DHT22;28616;44.746;19.678;2023-01-09T02:04:15;5.20;99.90
42979;DHT22;28616;44.746;19.678;2023-01-09T02:06:41;5.10;99.90
42979;DHT22;28616;44.746;19.678;2023-01-09T02:09:08;5.10;99.90
42979;DHT22;28616;44.746;19.678;2023-01-09T02:11:43;5.10;99.90
42979;DHT22;28616;44.746;19.678;2023-01-09T02:14:10;5.00;99.90
42979;DHT22;28616;44.746;19.678;2023-01-09T02:22:57;5.00;99.90
42979;DHT22;28616;44.746;19.678;2023-01-09T02:31:06;5.00;99.90
42979;DHT22;28616;44.746;19.678;2023-01-09T02:41:47;5.10;99.90
42979;DHT22;28616;44.746;19.678;2023-01-09T02:44:20;5.10;99.90
42979;DHT22;28616;44.746;19.678;2023-01-09T02:46:46;5.10;99.90
42979;DHT22;28616;44.746;19.678;2023-01-09T02:49:13;5.10;99.90
42979;DHT22;28616;44.746;19.678;2023-01-09T02:51:52;5.10;99.90
42979;DHT22;28616;44.746;19.678;2023-01-09T02:57:50;5.00;99.90
42979;DHT22;28616;44.746;19.678;2023-01-09T03:05:42;5.00;99.90
42979;DHT22;28616;44.746;19.678;2023-01-09T03:08:14;5.00;99.90
42979;DHT22;28616;44.746;19.678;2023-01-09T03:10:54;5.00;99.90
42979;DHT22;28616;44.746;19.678;2023-01-09T03:13:24;4.90;99.90
42979;DHT22;28616;44.746;19.678;2023-01-09T03:15:52;5.00;99.90
42979;DHT22;28616;44.746;19.678;2023-01-09T03:18:22;5.00;99.90
42979;DHT22;28616;44.746;19.678;2023-01-09T03:20:49;5.00;99.90
42979;DHT22;28616;44.746;19.678;2023-01-09T03:23:15;5.00;99.90
42979;DHT22;28616;44.746;19.678;2023-01-09T03:25:41;5.00;99.90
42979;DHT22;28616;44.746;19.678;2023-01-09T03:28:17;4.90;99.90
42979;DHT22;28616;44.746;19.678;2023-01-09T03:30:45;5.00;99.90
42979;DHT22;28616;44.746;19.678;2023-01-09T03:33:10;5.00;99.90
42979;DHT22;28616;44.746;19.678;2023-01-09T03:35:36;5.00;99.90
42979;DHT22;28616;44.746;19.678;2023-01-09T03:38:02;5.00;99.90
42979;DHT22;28616;44.746;19.678;2023-01-09T03:40:28;5.00;99.90
42979;DHT22;28616;44.746;19.678;2023-01-09T03:42:54;5.00;99.90
42979;DHT22;28616;44.746;19.678;2023-01-09T03:45:19;5.00;99.90
42979;DHT22;28616;44.746;19.678;2023-01-09T03:47:45;5.00;99.90
42979;DHT22;28616;44.746;19.678;2023-01-09T03:50:11;5.00;99.90
42979;DHT22;28616;44.746;19.678;2023-01-09T03:52:36;5.00;99.90
42979;DHT22;28616;44.746;19.678;2023-01-09T03:55:02;5.10;99.90
42979;DHT22;28616;44.746;19.678;2023-01-09T03:57:28;5.10;99.90
42979;DHT22;28616;44.746;19.678;2023-01-09T03:59:54;5.10;99.90
42979;DHT22;28616;44.746;19.678;2023-01-09T04:02:19;5.10;99.90
42979;DHT22;28616;44.746;19.678;2023-01-09T04:04:45;5.20;99.90
42979;DHT22;28616;44.746;19.678;2023-01-09T04:07:11;5.30;99.90
42979;DHT22;28616;44.746;19.678;2023-01-09T04:09:36;5.40;99.90
42979;DHT22;28616;44.746;19.678;2023-01-09T04:12:02;5.50;99.90
42979;DHT22;28616;44.746;19.678;2023-01-09T04:14:28;5.50;99.90
42979;DHT22;28616;44.746;19.678;2023-01-09T04:16:54;5.50;99.90
42979;DHT22;28616;44.746;19.678;2023-01-09T04:19:19;5.60;99.90
42979;DHT22;28616;44.746;19.678;2023-01-09T04:21:45;5.60;99.90
42979;DHT22;28616;44.746;19.678;2023-01-09T04:24:10;5.70;99.90
42979;DHT22;28616;44.746;19.678;2023-01-09T04:26:36;5.70;99.90
42979;DHT22;28616;44.746;19.678;2023-01-09T04:29:02;5.80;99.90
42979;DHT22;28616;44.746;19.678;2023-01-09T04:31:27;5.80;99.90
42979;DHT22;28616;44.746;19.678;2023-01-09T04:33:53;5.90;99.90
42979;DHT22;28616;44.746;19.678;2023-01-09T04:36:19;5.90;99.90
42979;DHT22;28616;44.746;19.678;2023-01-09T04:38:44;5.90;99.90
42979;DHT22;28616;44.746;19.678;2023-01-09T04:41:10;5.90;99.90
42979;DHT22;28616;44.746;19.678;2023-01-09T04:43:56;5.90;99.90
42979;DHT22;28616;44.746;19.678;2023-01-09T04:46:22;5.90;99.90
42979;DHT22;28616;44.746;19.678;2023-01-09T04:48:47;5.90;99.90
42979;DHT22;28616;44.746;19.678;2023-01-09T04:51:13;5.90;99.90
42979;DHT22;28616;44.746;19.678;2023-01-09T04:53:39;5.90;99.90
42979;DHT22;28616;44.746;19.678;2023-01-09T04:56:04;5.90;99.90
42979;DHT22;28616;44.746;19.678;2023-01-09T04:58:30;5.80;99.90
42979;DHT22;28616;44.746;19.678;2023-01-09T05:00:56;5.80;99.90
42979;DHT22;28616;44.746;19.678;2023-01-09T05:03:21;5.80;99.90
42979;DHT22;28616;44.746;19.678;2023-01-09T05:05:47;5.80;99.90
42979;DHT22;28616;44.746;19.678;2023-01-09T05:08:13;5.80;99.90
42979;DHT22;28616;44.746;19.678;2023-01-09T05:10:38;5.80;99.90
42979;DHT22;28616;44.746;19.678;2023-01-09T05:13:04;5.90;99.90
42979;DHT22;28616;44.746;19.678;2023-01-09T05:15:30;5.90;99.90
42979;DHT22;28616;44.746;19.678;2023-01-09T05:17:55;5.90;99.90
42979;DHT22;28616;44.746;19.678;2023-01-09T05:20:21;6.00;99.90
42979;DHT22;28616;44.746;19.678;2023-01-09T05:22:47;6.00;99.90
42979;DHT22;28616;44.746;19.678;2023-01-09T05:25:12;6.00;99.90
42979;DHT22;28616;44.746;19.678;2023-01-09T05:27:38;6.00;99.90
42979;DHT22;28616;44.746;19.678;2023-01-09T05:30:04;6.00;99.90
42979;DHT22;28616;44.746;19.678;2023-01-09T05:32:30;6.10;99.90
42979;DHT22;28616;44.746;19.678;2023-01-09T05:34:56;6.10;99.90
42979;DHT22;28616;44.746;19.678;2023-01-09T05:37:21;6.10;99.90
42979;DHT22;28616;44.746;19.678;2023-01-09T05:39:47;6.10;99.90
42979;DHT22;28616;44.746;19.678;2023-01-09T05:42:13;6.10;99.90
42979;DHT22;28616;44.746;19.678;2023-01-09T05:44:38;6.10;99.90
42979;DHT22;28616;44.746;19.678;2023-01-09T05:47:04;6.10;99.90
42979;DHT22;28616;44.746;19.678;2023-01-09T05:49:30;6.10;99.90
42979;DHT22;28616;44.746;19.678;2023-01-09T05:51:55;6.10;99.90
42979;DHT22;28616;44.746;19.678;2023-01-09T05:54:21;6.10;99.90
42979;DHT22;28616;44.746;19.678;2023-01-09T05:56:47;6.10;99.90
42979;DHT22;28616;44.746;19.678;2023-01-09T05:59:12;6.20;99.90
42979;DHT22;28616;44.746;19.678;2023-01-09T06:01:38;6.30;99.90
42979;DHT22;28616;44.746;19.678;2023-01-09T06:04:04;6.40;99.90
42979;DHT22;28616;44.746;19.678;2023-01-09T06:06:29;6.50;99.90
42979;DHT22;28616;44.746;19.678;2023-01-09T06:08:55;6.50;99.90
42979;DHT22;28616;44.746;19.678;2023-01-09T06:11:21;6.60;99.90
42979;DHT22;28616;44.746;19.678;2023-01-09T06:13:46;6.60;99.90
42979;DHT22;28616;44.746;19.678;2023-01-09T06:16:12;6.70;99.90
42979;DHT22;28616;44.746;19.678;2023-01-09T06:18:38;6.80;99.90
42979;DHT22;28616;44.746;19.678;2023-01-09T06:21:04;6.80;99.90
42979;DHT22;28616;44.746;19.678;2023-01-09T06:23:30;6.90;99.90
42979;DHT22;28616;44.746;19.678;2023-01-09T06:25:55;7.00;99.90
42979;DHT22;28616;44.746;19.678;2023-01-09T06:28:21;7.10;99.90
42979;DHT22;28616;44.746;19.678;2023-01-09T06:30:50;7.20;99.90
42979;DHT22;28616;44.746;19.678;2023-01-09T06:33:16;7.20;99.90
42979;DHT22;28616;44.746;19.678;2023-01-09T06:35:42;7.30;99.90
42979;DHT22;28616;44.746;19.678;2023-01-09T06:38:08;7.30;99.90
42979;DHT22;28616;44.746;19.678;2023-01-09T06:40:33;7.40;99.90
42979;DHT22;28616;44.746;19.678;2023-01-09T06:42:59;7.30;99.90
42979;DHT22;28616;44.746;19.678;2023-01-09T06:45:25;7.40;99.90
42979;DHT22;28616;44.746;19.678;2023-01-09T06:47:50;7.30;99.90
42979;DHT22;28616;44.746;19.678;2023-01-09T06:50:16;7.40;99.90
42979;DHT22;28616;44.746;19.678;2023-01-09T06:52:42;7.30;99.90
42979;DHT22;28616;44.746;19.678;2023-01-09T06:55:08;7.30;99.90
42979;DHT22;28616;44.746;19.678;2023-01-09T06:57:34;7.30;99.90
42979;DHT22;28616;44.746;19.678;2023-01-09T06:59:59;7.30;99.90
42979;DHT22;28616;44.746;19.678;2023-01-09T07:02:25;7.30;99.90
42979;DHT22;28616;44.746;19.678;2023-01-09T07:04:51;7.30;99.90
42979;DHT22;28616;44.746;19.678;2023-01-09T07:07:17;7.30;99.90
42979;DHT22;28616;44.746;19.678;2023-01-09T07:09:44;7.40;99.90
42979;DHT22;28616;44.746;19.678;2023-01-09T07:12:09;7.40;99.90
42979;DHT22;28616;44.746;19.678;2023-01-09T07:14:35;7.40;99.90
42979;DHT22;28616;44.746;19.678;2023-01-09T07:17:01;7.50;99.90
42979;DHT22;28616;44.746;19.678;2023-01-09T07:19:26;7.50;99.90
42979;DHT22;28616;44.746;19.678;2023-01-09T07:21:52;7.50;99.90
42979;DHT22;28616;44.746;19.678;2023-01-09T07:24:18;7.60;99.90
42979;DHT22;28616;44.746;19.678;2023-01-09T07:26:43;7.60;99.90
42979;DHT22;28616;44.746;19.678;2023-01-09T07:29:09;7.70;99.90
42979;DHT22;28616;44.746;19.678;2023-01-09T07:31:35;7.60;99.90
42979;DHT22;28616;44.746;19.678;2023-01-09T07:34:00;7.70;99.90
42979;DHT22;28616;44.746;19.678;2023-01-09T07:36:26;7.70;99.90
42979;DHT22;28616;44.746;19.678;2023-01-09T07:38:52;7.70;99.90
42979;DHT22;28616;44.746;19.678;2023-01-09T07:41:17;7.80;99.90
42979;DHT22;28616;44.746;19.678;2023-01-09T07:43:43;7.80;99.90
42979;DHT22;28616;44.746;19.678;2023-01-09T07:46:09;7.80;99.90
42979;DHT22;28616;44.746;19.678;2023-01-09T07:48:34;7.80;99.90
42979;DHT22;28616;44.746;19.678;2023-01-09T07:51:00;7.80;99.90
42979;DHT22;28616;44.746;19.678;2023-01-09T07:53:26;7.90;99.90
42979;DHT22;28616;44.746;19.678;2023-01-09T07:55:52;7.90;99.90
42979;DHT22;28616;44.746;19.678;2023-01-09T07:58:17;7.90;99.90
42979;DHT22;28616;44.746;19.678;2023-01-09T08:00:43;8.00;99.90
42979;DHT22;28616;44.746;19.678;2023-01-09T08:03:09;8.00;99.90
42979;DHT22;28616;44.746;19.678;2023-01-09T08:05:34;8.10;99.90
42979;DHT22;28616;44.746;19.678;2023-01-09T08:08:00;8.10;99.90
42979;DHT22;28616;44.746;19.678;2023-01-09T08:10:26;8.10;99.90
42979;DHT22;28616;44.746;19.678;2023-01-09T08:12:52;8.10;99.90
42979;DHT22;28616;44.746;19.678;2023-01-09T08:15:18;8.10;99.90
42979;DHT22;28616;44.746;19.678;2023-01-09T08:17:44;8.10;99.90
42979;DHT22;28616;44.746;19.678;2023-01-09T08:20:12;8.20;99.90
42979;DHT22;28616;44.746;19.678;2023-01-09T08:22:40;8.20;99.90
42979;DHT22;28616;44.746;19.678;2023-01-09T08:25:07;8.30;99.90
42979;DHT22;28616;44.746;19.678;2023-01-09T08:27:33;8.30;99.90
42979;DHT22;28616;44.746;19.678;2023-01-09T08:29:58;8.40;99.90
42979;DHT22;28616;44.746;19.678;2023-01-09T08:32:24;8.40;99.90
42979;DHT22;28616;44.746;19.678;2023-01-09T08:34:51;8.40;99.90
42979;DHT22;28616;44.746;19.678;2023-01-09T08:37:17;8.50;99.90
42979;DHT22;28616;44.746;19.678;2023-01-09T08:39:42;8.50;99.90
42979;DHT22;28616;44.746;19.678;2023-01-09T08:42:08;8.60;99.90
42979;DHT22;28616;44.746;19.678;2023-01-09T08:44:52;8.70;99.90
42979;DHT22;28616;44.746;19.678;2023-01-09T08:47:36;8.70;99.90
42979;DHT22;28616;44.746;19.678;2023-01-09T08:50:02;8.80;99.90
42979;DHT22;28616;44.746;19.678;2023-01-09T08:52:29;8.80;99.90
42979;DHT22;28616;44.746;19.678;2023-01-09T08:54:55;8.80;99.90
42979;DHT22;28616;44.746;19.678;2023-01-09T08:57:21;8.90;99.90
42979;DHT22;28616;44.746;19.678;2023-01-09T08:59:47;8.90;99.90
42979;DHT22;28616;44.746;19.678;2023-01-09T09:02:13;8.90;99.90
42979;DHT22;28616;44.746;19.678;2023-01-09T09:04:39;8.90;99.90
42979;DHT22;28616;44.746;19.678;2023-01-09T09:07:04;9.00;99.90
42979;DHT22;28616;44.746;19.678;2023-01-09T09:09:30;9.00;99.90
42979;DHT22;28616;44.746;19.678;2023-01-09T09:11:56;9.10;99.90
42979;DHT22;28616;44.746;19.678;2023-01-09T09:14:22;9.10;99.90
42979;DHT22;28616;44.746;19.678;2023-01-09T09:17:05;9.10;99.90
42979;DHT22;28616;44.746;19.678;2023-01-09T09:19:31;9.20;99.90
42979;DHT22;28616;44.746;19.678;2023-01-09T09:21:57;9.20;99.90
42979;DHT22;28616;44.746;19.678;2023-01-09T09:24:22;9.20;99.90
42979;DHT22;28616;44.746;19.678;2023-01-09T09:26:48;9.20;99.90
42979;DHT22;28616;44.746;19.678;2023-01-09T09:29:14;9.20;99.90
42979;DHT22;28616;44.746;19.678;2023-01-09T09:31:39;9.30;99.90
42979;DHT22;28616;44.746;19.678;2023-01-09T09:34:06;9.30;99.90
42979;DHT22;28616;44.746;19.678;2023-01-09T09:36:32;9.30;99.90
42979;DHT22;28616;44.746;19.678;2023-01-09T09:38:58;9.30;99.90
42979;DHT22;28616;44.746;19.678;2023-01-09T09:53:35;9.50;99.90
42979;DHT22;28616;44.746;19.678;2023-01-09T09:56:02;9.50;99.90
42979;DHT22;28616;44.746;19.678;2023-01-09T09:58:39;9.60;99.90
42979;DHT22;28616;44.746;19.678;2023-01-09T10:01:06;9.60;99.90
42979;DHT22;28616;44.746;19.678;2023-01-09T10:03:52;9.70;99.90
42979;DHT22;28616;44.746;19.678;2023-01-09T10:06:29;9.80;99.90
42979;DHT22;28616;44.746;19.678;2023-01-09T10:09:04;9.90;99.90
42979;DHT22;28616;44.746;19.678;2023-01-09T10:14:22;10.20;99.90
42979;DHT22;28616;44.746;19.678;2023-01-09T10:25:29;10.30;99.90
42979;DHT22;28616;44.746;19.678;2023-01-09T10:33:32;10.30;99.90
42979;DHT22;28616;44.746;19.678;2023-01-09T10:38:42;10.30;99.90
42979;DHT22;28616;44.746;19.678;2023-01-09T10:41:18;10.40;99.90
42979;DHT22;28616;44.746;19.678;2023-01-09T10:46:26;10.40;99.90
42979;DHT22;28616;44.746;19.678;2023-01-09T10:48:58;10.40;99.90
42979;DHT22;28616;44.746;19.678;2023-01-09T10:51:49;10.50;99.90
42979;DHT22;28616;44.746;19.678;2023-01-09T10:54:18;10.60;99.90
42979;DHT22;28616;44.746;19.678;2023-01-09T10:56:58;10.60;99.90
42979;DHT22;28616;44.746;19.678;2023-01-09T10:59:26;10.60;99.90
42979;DHT22;28616;44.746;19.678;2023-01-09T11:01:52;10.60;99.90
42979;DHT22;28616;44.746;19.678;2023-01-09T11:04:25;10.60;99.90
42979;DHT22;28616;44.746;19.678;2023-01-09T11:06:57;10.60;99.90
42979;DHT22;28616;44.746;19.678;2023-01-09T11:09:24;10.60;99.90
42979;DHT22;28616;44.746;19.678;2023-01-09T11:11:50;10.60;99.90
42979;DHT22;28616;44.746;19.678;2023-01-09T11:14:25;10.70;99.90
42979;DHT22;28616;44.746;19.678;2023-01-09T11:16:59;10.70;99.90
42979;DHT22;28616;44.746;19.678;2023-01-09T11:19:26;10.70;99.90
42979;DHT22;28616;44.746;19.678;2023-01-09T11:22:15;10.70;99.90
42979;DHT22;28616;44.746;19.678;2023-01-09T11:24:41;10.70;99.90
42979;DHT22;28616;44.746;19.678;2023-01-09T11:29:39;10.70;99.90
42979;DHT22;28616;44.746;19.678;2023-01-09T11:32:15;10.70;99.90
42979;DHT22;28616;44.746;19.678;2023-01-09T11:34:44;10.60;99.90
42979;DHT22;28616;44.746;19.678;2023-01-09T11:37:12;10.70;99.90
42979;DHT22;28616;44.746;19.678;2023-01-09T11:39:44;10.70;99.90
42979;DHT22;28616;44.746;19.678;2023-01-09T11:42:19;10.80;99.90
42979;DHT22;28616;44.746;19.678;2023-01-09T11:45:16;10.90;99.90
42979;DHT22;28616;44.746;19.678;2023-01-09T11:47:43;11.00;99.90
42979;DHT22;28616;44.746;19.678;2023-01-09T11:50:19;11.10;99.90
42979;DHT22;28616;44.746;19.678;2023-01-09T11:52:46;11.10;99.90
42979;DHT22;28616;44.746;19.678;2023-01-09T11:55:15;11.10;99.90
42979;DHT22;28616;44.746;19.678;2023-01-09T11:57:42;11.10;99.90
42979;DHT22;28616;44.746;19.678;2023-01-09T12:00:27;11.10;99.90
42979;DHT22;28616;44.746;19.678;2023-01-09T12:06:02;11.10;99.90
42979;DHT22;28616;44.746;19.678;2023-01-09T12:14:30;11.10;99.90
42979;DHT22;28616;44.746;19.678;2023-01-09T12:17:36;11.10;99.90
42979;DHT22;28616;44.746;19.678;2023-01-09T12:28:06;11.20;99.90
42979;DHT22;28616;44.746;19.678;2023-01-09T12:31:01;11.20;99.90
42979;DHT22;28616;44.746;19.678;2023-01-09T12:36:27;11.30;99.90
42979;DHT22;28616;44.746;19.678;2023-01-09T12:55:18;11.60;99.90
42979;DHT22;28616;44.746;19.678;2023-01-09T12:57:50;11.60;99.90
42979;DHT22;28616;44.746;19.678;2023-01-09T13:00:33;11.60;99.90
42979;DHT22;28616;44.746;19.678;2023-01-09T13:03:28;11.60;99.90
42979;DHT22;28616;44.746;19.678;2023-01-09T13:05:56;11.60;99.90
42979;DHT22;28616;44.746;19.678;2023-01-09T13:08:31;11.60;99.90
42979;DHT22;28616;44.746;19.678;2023-01-09T13:16:21;11.60;99.90
42979;DHT22;28616;44.746;19.678;2023-01-09T13:18:53;11.60;99.90
42979;DHT22;28616;44.746;19.678;2023-01-09T13:21:20;11.60;99.90
42979;DHT22;28616;44.746;19.678;2023-01-09T13:23:58;11.60;99.90
42979;DHT22;28616;44.746;19.678;2023-01-09T13:26:43;11.60;99.90
42979;DHT22;28616;44.746;19.678;2023-01-09T13:29:26;11.60;99.90
42979;DHT22;28616;44.746;19.678;2023-01-09T13:34:44;11.60;99.90
42979;DHT22;28616;44.746;19.678;2023-01-09T13:37:31;11.50;99.90
42979;DHT22;28616;44.746;19.678;2023-01-09T13:43:06;11.50;99.90
42979;DHT22;28616;44.746;19.678;2023-01-09T13:45:35;11.50;99.90
42979;DHT22;28616;44.746;19.678;2023-01-09T13:50:39;11.40;99.90
42979;DHT22;28616;44.746;19.678;2023-01-09T13:58:24;11.40;99.90
42979;DHT22;28616;44.746;19.678;2023-01-09T14:00:56;11.40;99.90
42979;DHT22;28616;44.746;19.678;2023-01-09T14:03:36;11.40;99.90
42979;DHT22;28616;44.746;19.678;2023-01-09T14:06:08;11.40;99.90
42979;DHT22;28616;44.746;19.678;2023-01-09T14:08:36;11.50;99.90
42979;DHT22;28616;44.746;19.678;2023-01-09T14:11:03;11.40;99.90
42979;DHT22;28616;44.746;19.678;2023-01-09T14:13:32;11.40;99.90
42979;DHT22;28616;44.746;19.678;2023-01-09T14:16:19;11.50;99.90
42979;DHT22;28616;44.746;19.678;2023-01-09T14:19:04;11.50;99.90
42979;DHT22;28616;44.746;19.678;2023-01-09T14:21:54;11.50;99.90
42979;DHT22;28616;44.746;19.678;2023-01-09T14:30:26;11.40;99.90
42979;DHT22;28616;44.746;19.678;2023-01-09T14:36:34;11.40;99.90
42979;DHT22;28616;44.746;19.678;2023-01-09T14:38:58;11.40;99.90
42979;DHT22;28616;44.746;19.678;2023-01-09T14:41:49;11.40;99.90
42979;DHT22;28616;44.746;19.678;2023-01-09T14:52:50;11.40;99.90
42979;DHT22;28616;44.746;19.678;2023-01-09T14:55:29;11.40;99.90
42979;DHT22;28616;44.746;19.678;2023-01-09T15:01:10;11.40;99.90
42979;DHT22;28616;44.746;19.678;2023-01-09T15:06:05;11.40;99.90
42979;DHT22;28616;44.746;19.678;2023-01-09T15:08:31;11.40;99.90
42979;DHT22;28616;44.746;19.678;2023-01-09T15:10:58;11.40;99.90
42979;DHT22;28616;44.746;19.678;2023-01-09T15:13:45;11.40;99.90
42979;DHT22;28616;44.746;19.678;2023-01-09T15:16:24;11.40;99.90
42979;DHT22;28616;44.746;19.678;2023-01-09T15:18:59;11.40;99.90
42979;DHT22;28616;44.746;19.678;2023-01-09T15:21:28;11.40;99.90
42979;DHT22;28616;44.746;19.678;2023-01-09T15:24:20;11.40;99.90
42979;DHT22;28616;44.746;19.678;2023-01-09T15:26:56;11.50;99.90
42979;DHT22;28616;44.746;19.678;2023-01-09T15:29:22;11.40;99.90
42979;DHT22;28616;44.746;19.678;2023-01-09T15:31:59;11.50;99.90
42979;DHT22;28616;44.746;19.678;2023-01-09T15:34:28;11.40;99.90
42979;DHT22;28616;44.746;19.678;2023-01-09T15:36:54;11.40;99.90
42979;DHT22;28616;44.746;19.678;2023-01-09T15:39:34;11.40;99.90
42979;DHT22;28616;44.746;19.678;2023-01-09T15:42:00;11.40;99.90
42979;DHT22;28616;44.746;19.678;2023-01-09T15:44:47;11.40;99.90
42979;DHT22;28616;44.746;19.678;2023-01-09T15:47:16;11.30;99.90
42979;DHT22;28616;44.746;19.678;2023-01-09T15:49:45;11.30;99.90
42979;DHT22;28616;44.746;19.678;2023-01-09T15:52:15;11.30;99.90
42979;DHT22;28616;44.746;19.678;2023-01-09T15:54:44;11.20;99.90
42979;DHT22;28616;44.746;19.678;2023-01-09T15:59:49;11.30;99.90
42979;DHT22;28616;44.746;19.678;2023-01-09T16:02:15;11.30;99.90
42979;DHT22;28616;44.746;19.678;2023-01-09T16:05:08;11.20;99.90
42979;DHT22;28616;44.746;19.678;2023-01-09T16:07:46;11.20;99.90
42979;DHT22;28616;44.746;19.678;2023-01-09T16:10:24;11.20;99.90
42979;DHT22;28616;44.746;19.678;2023-01-09T16:12:51;11.10;99.90
42979;DHT22;28616;44.746;19.678;2023-01-09T16:15:18;11.10;99.90
42979;DHT22;28616;44.746;19.678;2023-01-09T16:18:15;11.00;99.90
42979;DHT22;28616;44.746;19.678;2023-01-09T16:20:44;10.90;99.90
42979;DHT22;28616;44.746;19.678;2023-01-09T16:26:28;10.80;99.90
42979;DHT22;28616;44.746;19.678;2023-01-09T16:28:54;10.80;99.90
42979;DHT22;28616;44.746;19.678;2023-01-09T16:31:27;10.70;99.90
42979;DHT22;28616;44.746;19.678;2023-01-09T16:33:58;10.70;99.90
42979;DHT22;28616;44.746;19.678;2023-01-09T16:36:25;10.70;99.90
42979;DHT22;28616;44.746;19.678;2023-01-09T16:38:52;10.60;99.90
42979;DHT22;28616;44.746;19.678;2023-01-09T16:41:20;10.60;99.90
42979;DHT22;28616;44.746;19.678;2023-01-09T16:44:05;10.60;99.90
42979;DHT22;28616;44.746;19.678;2023-01-09T16:46:43;10.70;99.90
42979;DHT22;28616;44.746;19.678;2023-01-09T16:49:19;10.60;99.90
42979;DHT22;28616;44.746;19.678;2023-01-09T16:51:47;10.60;99.90
42979;DHT22;28616;44.746;19.678;2023-01-09T16:54:13;10.50;99.90
42979;DHT22;28616;44.746;19.678;2023-01-09T16:56:39;10.40;99.90
42979;DHT22;28616;44.746;19.678;2023-01-09T16:59:13;10.30;99.90
42979;DHT22;28616;44.746;19.678;2023-01-09T17:01:40;10.20;99.90
42979;DHT22;28616;44.746;19.678;2023-01-09T17:04:12;10.10;99.90
42979;DHT22;28616;44.746;19.678;2023-01-09T17:06:39;10.00;99.90
42979;DHT22;28616;44.746;19.678;2023-01-09T17:09:05;10.00;99.90
42979;DHT22;28616;44.746;19.678;2023-01-09T17:11:31;9.90;99.90
42979;DHT22;28616;44.746;19.678;2023-01-09T17:13:58;9.90;99.90
42979;DHT22;28616;44.746;19.678;2023-01-09T17:16:23;9.90;99.90
42979;DHT22;28616;44.746;19.678;2023-01-09T17:18:49;9.90;99.90
42979;DHT22;28616;44.746;19.678;2023-01-09T17:21:38;9.80;99.90
42979;DHT22;28616;44.746;19.678;2023-01-09T17:24:05;9.80;99.90
42979;DHT22;28616;44.746;19.678;2023-01-09T17:26:49;9.80;99.90
42979;DHT22;28616;44.746;19.678;2023-01-09T17:29:34;9.70;99.90
42979;DHT22;28616;44.746;19.678;2023-01-09T17:32:00;9.70;99.90
42979;DHT22;28616;44.746;19.678;2023-01-09T17:34:26;9.60;99.90
42979;DHT22;28616;44.746;19.678;2023-01-09T17:36:51;9.60;99.90
42979;DHT22;28616;44.746;19.678;2023-01-09T17:39:20;9.60;99.90
42979;DHT22;28616;44.746;19.678;2023-01-09T17:41:45;9.60;99.90
42979;DHT22;28616;44.746;19.678;2023-01-09T17:44:11;9.50;99.90
42979;DHT22;28616;44.746;19.678;2023-01-09T17:46:40;9.50;99.90
42979;DHT22;28616;44.746;19.678;2023-01-09T17:49:08;9.50;99.90
42979;DHT22;28616;44.746;19.678;2023-01-09T17:51:38;9.50;99.90
42979;DHT22;28616;44.746;19.678;2023-01-09T17:54:04;9.40;99.90
42979;DHT22;28616;44.746;19.678;2023-01-09T17:56:32;9.40;99.90
42979;DHT22;28616;44.746;19.678;2023-01-09T17:58:59;9.40;99.90
42979;DHT22;28616;44.746;19.678;2023-01-09T18:01:25;9.40;99.90
42979;DHT22;28616;44.746;19.678;2023-01-09T18:03:51;9.40;99.90
42979;DHT22;28616;44.746;19.678;2023-01-09T18:06:19;9.30;99.90
42979;DHT22;28616;44.746;19.678;2023-01-09T18:08:45;9.30;99.90